サラブレッド!

LUXURY FLIGHT

080-7560-1817

羽田空港本店:東京都大田区羽田空港3-3-2
第一旅客ターミナル5階
営業時間:10:00~20:00
定休日:年中無休

セントレア店:愛知県常滑市セントレア1-1
FLIGHT OF DREAMS FLIGHT PARK
営業時間:10:00~20:00
定休日:年中無休

lv

サラブレッド!

STAFF BLOG

2019/12/16 サラブレッド!

中部からおはようございまーーーーーす!

昨夜のMETARは…

 

RJGG 151230Z 32012KT 9999 FEW030 09/01 Q1027 NOSIG

 

本日は、東京からお越しのMさま親子!

清楚でおきれいなお母さまとお嬢様です

 

今回はお嬢様にご体験いただきました!!

 

コクピットドアを開けて、キャプテンシートに座るまでに、

 

「すごーーーーい!すごーーーーい!」

とテンションUPなご様子

 

そのハイテンションのまま、1ミリの迷いもない思い切ったスロットル操作で

勢いよくテイクオーーーーーーーーーーフっっ!!

 

清楚な外見とのギャップに、スタッフは早くも虜になっております

 

 

その一方、バックシートのお母様はというと、

空を自由に楽しまれる娘さまを微笑んでご覧になっているのですが、

どこか非常に落ち着かれていて、なんとなーーーく、コクピットに慣れているご様子

 

「まさか… お二人はCAさんですか?」

 

とお尋ねすると、

 

なんとまぁ、お母様はかつてエアライン運航のコクピットで通訳としてご活躍されていたとのこと!

そしてそして、娘さまは某航空会社で総合職として働かれているとのこと!

 

さすが、空のDNAはキッチリと受け継がれております(笑)

 

滑走路へのアプローチ中に、出過ぎてしまったスピードを

上手にコントロールして、スムーズにやさし~くランディング!

 

特に私がサポートをする必要は無く、自然と機体がセンターラインの直上へ。

 

さすが、航空DNAを受け継いだサラブレット(笑)

生まれ持ったセンスなのでしょうか?

 

素直に嫉妬します。笑

 

 

 

img_2051

 

今まで、飛行機は眺めるだけだったのが、

飛行機を操縦する楽しさを感じて頂けたご様子!!

 

着陸後の第一声

「私、パイロットいけますかねー??」

 

もちろん飛ばしたい気持ちとその素晴らしいDNAがあれば、いけますともーーー!!!

 

ようこそっ、空の世界へ!!!(笑)

 

 

体験の最後に、お二人で操縦席に座り、お互いに写真をパチリっ!

 

共通の好きなモノで、時間と空間を共感できる仲良し母娘ってすばらしいな~~~

 

本日は、遠方よりご来店頂き、誠にありがとうございました!

 

今度、両親を連れて、好きなモノ探しに出かけよう!

なーーーーんて決心した小生でした。

 

本日もブログをお読みくださり、本当にありがとうございます!

 

 

「感謝」

 

TOP